TimeCST,TemperatureF,Dew PointF,Humidity,Sea Level PressureIn,VisibilityMPH,Wind Direction,Wind SpeedMPH,Gust SpeedMPH,PrecipitationIn,Events,Conditions,WindDirDegrees,DateUTC
12:53 AM,27.0,19.0,72,30.36,10.0,SSE,5.8,-,N/A,,Clear,150,2013-01-07 06:53:00
1:53 AM,27.0,19.9,75,30.34,10.0,SSE,6.9,-,N/A,,Clear,150,2013-01-07 07:53:00
2:53 AM,27.0,19.0,72,30.34,10.0,SSE,5.8,-,N/A,,Clear,160,2013-01-07 08:53:00
3:53 AM,30.0,21.0,69,30.31,10.0,SSE,8.1,-,N/A,,Clear,150,2013-01-07 09:53:00
4:53 AM,27.0,19.9,75,30.30,10.0,South,6.9,-,N/A,,Clear,170,2013-01-07 10:53:00
5:53 AM,28.0,19.9,72,30.30,10.0,South,10.4,-,N/A,,Clear,170,2013-01-07 11:53:00
6:53 AM,26.1,19.9,78,30.33,10.0,South,9.2,-,N/A,,Clear,170,2013-01-07 12:53:00
7:53 AM,26.1,19.9,78,30.32,10.0,South,9.2,-,N/A,,Clear,170,2013-01-07 13:53:00
8:53 AM,34.0,24.1,67,30.32,10.0,South,9.2,-,N/A,,Clear,170,2013-01-07 14:53:00
9:53 AM,39.9,25.0,55,30.32,10.0,South,12.7,-,N/A,,Clear,190,2013-01-07 15:53:00
10:53 AM,46.0,25.0,44,30.30,10.0,SW,16.1,21.9,N/A,,Clear,220,2013-01-07 16:53:00
11:53 AM,48.0,24.1,39,30.27,10.0,SSW,15.0,23.0,N/A,,Clear,210,2013-01-07 17:53:00
12:53 PM,48.9,24.1,38,30.23,10.0,SSW,15.0,-,N/A,,Clear,210,2013-01-07 18:53:00
1:53 PM,50.0,24.1,36,30.20,10.0,South,12.7,-,N/A,,Clear,190,2013-01-07 19:53:00
2:53 PM,50.0,23.0,35,30.19,10.0,South,15.0,-,N/A,,Clear,190,2013-01-07 20:53:00
3:53 PM,51.1,23.0,33,30.17,10.0,South,13.8,-,N/A,,Clear,170,2013-01-07 21:53:00
4:53 PM,44.1,24.1,45,30.17,10.0,South,6.9,-,N/A,,Clear,180,2013-01-07 22:53:00
5:53 PM,41.0,24.1,51,30.16,10.0,South,5.8,-,N/A,,Clear,170,2013-01-07 23:53:00
6:53 PM,39.9,25.0,55,30.17,10.0,South,9.2,-,N/A,,Clear,180,2013-01-08 00:53:00
7:53 PM,39.9,25.0,55,30.17,10.0,South,9.2,-,N/A,,Clear,190,2013-01-08 01:53:00
8:53 PM,39.9,25.0,55,30.15,10.0,South,11.5,-,N/A,,Clear,170,2013-01-08 02:53:00
9:53 PM,39.9,25.0,55,30.13,10.0,South,10.4,-,N/A,,Clear,170,2013-01-08 03:53:00
10:53 PM,37.9,24.1,57,30.12,10.0,South,9.2,-,N/A,,Clear,180,2013-01-08 04:53:00
11:53 PM,35.1,24.1,64,30.12,10.0,South,6.9,-,N/A,,Clear,170,2013-01-08 05:53:00